createdAt,value
2022-08-14T00:01:11.519Z,80.20
2022-08-14T00:03:40.667Z,80.10
2022-08-14T00:06:25.351Z,80.20
2022-08-14T00:08:59.115Z,80.20
2022-08-14T00:11:32.016Z,80.00
2022-08-14T00:14:02.007Z,80.20
2022-08-14T00:16:40.917Z,79.70
2022-08-14T00:19:18.865Z,79.60
2022-08-14T00:21:47.243Z,79.30
2022-08-14T00:24:13.911Z,79.20
2022-08-14T00:26:52.598Z,79.00
2022-08-14T00:29:21.396Z,78.80
2022-08-14T00:31:55.288Z,78.70
2022-08-14T00:34:36.804Z,78.60
2022-08-14T00:37:11.130Z,78.80
2022-08-14T00:39:39.549Z,78.60
2022-08-14T00:42:07.698Z,78.40
2022-08-14T00:44:48.571Z,78.40
2022-08-14T00:47:16.090Z,78.50
2022-08-14T00:49:43.654Z,78.20
2022-08-14T00:52:14.028Z,78.20
2022-08-14T00:54:44.651Z,78.20
2022-08-14T00:57:12.416Z,78.00
2022-08-14T00:59:39.574Z,78.20
2022-08-14T01:02:09.426Z,78.10
2022-08-14T01:04:53.789Z,78.10
2022-08-14T01:07:22.288Z,78.10
2022-08-14T01:09:52.886Z,78.10
2022-08-14T01:12:27.389Z,77.90
2022-08-14T01:14:58.643Z,78.00
2022-08-14T01:17:49.627Z,77.90
2022-08-14T01:20:35.982Z,77.70
2022-08-14T01:23:10.386Z,77.90
2022-08-14T01:25:43.763Z,77.60
2022-08-14T01:28:34.530Z,77.90
2022-08-14T01:30:59.966Z,78.00
2022-08-14T01:33:30.132Z,77.90
2022-08-14T01:36:04.533Z,77.90
2022-08-14T01:38:37.378Z,77.90
2022-08-14T01:41:06.418Z,77.80
2022-08-14T01:43:45.490Z,77.80
2022-08-14T01:46:24.852Z,77.70
2022-08-14T01:48:54.830Z,77.90
2022-08-14T01:51:24.938Z,77.70
2022-08-14T01:53:54.857Z,77.80
2022-08-14T01:56:37.330Z,77.70
2022-08-14T01:59:18.085Z,77.80
2022-08-14T02:01:59.122Z,77.80
2022-08-14T02:04:55.799Z,77.80
2022-08-14T02:07:17.309Z,78.50
2022-08-14T02:10:01.550Z,77.90
2022-08-14T02:12:29.449Z,77.60
2022-08-14T02:15:00.320Z,77.90
2022-08-14T02:17:28.901Z,77.80
2022-08-14T02:19:57.451Z,77.80
2022-08-14T02:22:28.688Z,77.80
2022-08-14T02:24:59.682Z,77.80
2022-08-14T02:28:22.232Z,77.80
2022-08-14T02:30:15.226Z,77.70
2022-08-14T02:32:43.173Z,77.80
2022-08-14T02:35:18.739Z,77.70
2022-08-14T02:37:49.965Z,77.80
2022-08-14T02:40:18.538Z,77.70
2022-08-14T02:42:54.273Z,77.70
2022-08-14T02:45:24.880Z,77.70
2022-08-14T02:48:01.023Z,77.60
2022-08-14T02:50:28.651Z,77.90
2022-08-14T02:53:07.399Z,77.60
2022-08-14T02:55:46.133Z,77.80
2022-08-14T02:58:13.130Z,77.80
2022-08-14T03:00:57.394Z,77.80
2022-08-14T03:03:24.831Z,77.70
2022-08-14T03:05:54.412Z,77.80
2022-08-14T03:08:22.483Z,77.70
2022-08-14T03:10:50.260Z,77.80
2022-08-14T03:13:19.589Z,77.80
2022-08-14T03:15:55.639Z,77.80
2022-08-14T03:18:30.806Z,77.80
2022-08-14T03:21:00.585Z,77.80
2022-08-14T03:23:27.939Z,77.70
2022-08-14T03:25:54.634Z,77.80
2022-08-14T03:28:33.132Z,77.80
2022-08-14T03:31:00.445Z,77.80
2022-08-14T03:33:28.006Z,77.70
2022-08-14T03:37:37.493Z,77.80
2022-08-14T03:39:15.880Z,77.70
2022-08-14T03:41:45.361Z,77.70
2022-08-14T03:45:18.984Z,77.80
2022-08-14T03:46:59.176Z,77.70
2022-08-14T03:49:30.152Z,77.80
2022-08-14T03:52:07.751Z,77.90
2022-08-14T03:54:52.298Z,77.90
2022-08-14T03:57:22.582Z,77.90
2022-08-14T03:59:49.621Z,78.00
2022-08-14T04:02:32.726Z,77.90
2022-08-14T04:05:12.314Z,78.00
2022-08-14T04:07:41.456Z,78.00
2022-08-14T04:10:17.227Z,78.00
2022-08-14T04:12:51.586Z,78.00
2022-08-14T04:15:20.042Z,78.10
2022-08-14T04:17:50.220Z,78.00
2022-08-14T04:20:25.878Z,78.10
2022-08-14T04:22:55.668Z,78.10
2022-08-14T04:25:22.534Z,78.10
2022-08-14T04:28:03.440Z,78.20
2022-08-14T04:30:32.883Z,78.90
2022-08-14T04:33:06.405Z,78.30
2022-08-14T04:35:56.217Z,78.40
2022-08-14T04:38:43.089Z,78.30
2022-08-14T04:41:32.433Z,78.30
2022-08-14T04:43:59.063Z,78.40
2022-08-14T04:46:55.368Z,78.20
2022-08-14T04:49:15.232Z,78.30
2022-08-14T04:51:46.878Z,78.50
2022-08-14T04:54:23.012Z,78.60
2022-08-14T04:56:51.318Z,78.40
2022-08-14T04:59:21.334Z,78.80
2022-08-14T05:01:51.766Z,78.70
2022-08-14T05:04:23.043Z,78.90
2022-08-14T05:06:53.547Z,79.00
2022-08-14T05:09:21.726Z,79.10
2022-08-14T05:11:49.894Z,79.20
2022-08-14T05:14:43.256Z,79.20
2022-08-14T05:17:05.515Z,79.10
2022-08-14T05:19:33.666Z,79.20
2022-08-14T05:22:15.636Z,79.60
2022-08-14T05:24:44.645Z,79.10
2022-08-14T05:27:11.456Z,79.60
2022-08-14T05:29:38.509Z,79.60
2022-08-14T05:32:07.562Z,79.50
2022-08-14T05:34:34.300Z,79.50
2022-08-14T05:37:03.222Z,79.20
2022-08-14T05:39:31.334Z,79.50
2022-08-14T05:41:58.448Z,79.40
2022-08-14T05:44:29.950Z,79.50
2022-08-14T05:46:57.955Z,79.50
2022-08-14T05:49:26.107Z,79.40
2022-08-14T05:52:01.526Z,79.40
2022-08-14T05:54:28.406Z,79.20
2022-08-14T05:57:02.537Z,78.90
2022-08-14T05:59:36.630Z,78.80
2022-08-14T06:02:05.813Z,78.50
2022-08-14T06:04:32.856Z,78.70
2022-08-14T06:06:59.521Z,78.60
2022-08-14T06:09:26.402Z,78.80
2022-08-14T06:11:53.279Z,78.90
2022-08-14T06:14:24.192Z,78.80
2022-08-14T06:16:53.111Z,78.90
2022-08-14T06:19:20.374Z,78.90
2022-08-14T06:21:55.854Z,78.80
2022-08-14T06:24:27.554Z,78.60
2022-08-14T06:27:04.690Z,79.10
2022-08-14T06:29:34.547Z,79.10
2022-08-14T06:32:36.505Z,79.00
2022-08-14T06:35:09.354Z,79.00
2022-08-14T06:37:54.807Z,79.00
2022-08-14T06:40:27.553Z,78.70
2022-08-14T06:42:56.101Z,78.70
2022-08-14T06:45:26.471Z,78.80
2022-08-14T06:47:53.821Z,78.70
2022-08-14T06:50:21.772Z,78.60
2022-08-14T06:52:55.465Z,78.60
2022-08-14T06:55:27.754Z,78.60
2022-08-14T06:57:55.171Z,78.60
2022-08-14T07:00:27.257Z,78.60
2022-08-14T07:03:21.626Z,78.50
2022-08-14T07:05:55.577Z,78.60
2022-08-14T07:08:29.709Z,78.80
2022-08-14T07:11:02.775Z,78.60
2022-08-14T07:13:30.617Z,78.60
2022-08-14T07:15:58.717Z,78.50
2022-08-14T07:18:27.097Z,78.50
2022-08-14T07:20:54.339Z,78.50
2022-08-14T07:23:23.879Z,78.40
2022-08-14T07:25:52.070Z,78.50
2022-08-14T07:28:23.866Z,78.50
2022-08-14T07:30:52.433Z,78.40
2022-08-14T07:33:24.623Z,78.40
2022-08-14T07:35:57.627Z,78.40
2022-08-14T07:38:32.021Z,78.40
2022-08-14T07:41:00.690Z,78.40
2022-08-14T07:43:27.801Z,78.30
2022-08-14T07:45:55.230Z,78.40
2022-08-14T07:48:25.207Z,78.20
2022-08-14T07:50:52.788Z,78.20
2022-08-14T07:53:22.363Z,78.30
2022-08-14T07:56:00.276Z,78.40
2022-08-14T07:58:38.991Z,78.50
2022-08-14T08:01:18.958Z,78.40
2022-08-14T08:03:51.915Z,78.30
2022-08-14T08:06:24.503Z,78.30
2022-08-14T08:09:00.985Z,78.30
2022-08-14T08:11:35.012Z,78.30
2022-08-14T08:14:17.308Z,78.30
2022-08-14T08:16:45.629Z,78.30
2022-08-14T08:19:14.321Z,78.40
2022-08-14T08:21:43.807Z,78.20
2022-08-14T08:24:12.470Z,78.30
2022-08-14T08:26:45.382Z,78.40
2022-08-14T08:29:18.579Z,78.40
2022-08-14T08:31:51.992Z,79.30
2022-08-14T08:34:19.633Z,78.30
2022-08-14T08:36:50.326Z,78.40
2022-08-14T08:39:22.249Z,78.10
2022-08-14T08:41:53.312Z,78.40
2022-08-14T08:44:31.791Z,78.30
2022-08-14T08:47:05.271Z,78.20
2022-08-14T08:49:36.523Z,78.30
2022-08-14T08:52:15.380Z,78.20
2022-08-14T08:54:55.622Z,78.20
2022-08-14T08:57:24.207Z,78.40
2022-08-14T08:59:55.280Z,78.40
2022-08-14T09:02:26.111Z,78.40
2022-08-14T09:05:02.050Z,78.30
2022-08-14T09:07:29.042Z,78.40
2022-08-14T09:10:00.038Z,78.30
2022-08-14T09:12:31.345Z,78.50
2022-08-14T09:15:03.962Z,78.50
2022-08-14T09:17:41.252Z,78.40
2022-08-14T09:20:11.666Z,79.00
2022-08-14T09:22:42.458Z,78.40
2022-08-14T09:25:15.041Z,78.40
2022-08-14T09:27:41.942Z,78.50
2022-08-14T09:30:30.645Z,78.50
2022-08-14T09:33:11.786Z,78.60
2022-08-14T09:36:02.944Z,78.60
2022-08-14T09:38:48.372Z,78.40
2022-08-14T09:42:20.581Z,78.40
2022-08-14T09:44:40.520Z,78.60
2022-08-14T09:47:10.656Z,78.40
2022-08-14T09:49:52.230Z,78.60
2022-08-14T09:52:33.185Z,78.40
2022-08-14T09:55:18.194Z,78.40
2022-08-14T09:57:48.110Z,78.40
2022-08-14T10:00:28.713Z,78.40
2022-08-14T10:03:05.088Z,78.40
2022-08-14T10:05:34.273Z,78.40
2022-08-14T10:08:05.298Z,78.50
2022-08-14T10:10:41.982Z,78.50
2022-08-14T10:13:20.790Z,78.40
2022-08-14T10:15:50.414Z,78.40
2022-08-14T10:18:21.432Z,78.40
2022-08-14T10:20:58.068Z,78.50
2022-08-14T10:23:26.477Z,78.40
2022-08-14T10:25:57.447Z,78.50
2022-08-14T10:28:39.170Z,78.80
2022-08-14T10:31:25.350Z,78.40
2022-08-14T10:34:00.465Z,78.40
2022-08-14T10:36:36.859Z,78.20
2022-08-14T10:39:18.104Z,78.40
2022-08-14T10:41:48.696Z,78.30
2022-08-14T10:44:22.549Z,78.20
2022-08-14T10:47:37.285Z,78.10
2022-08-14T10:49:56.611Z,78.10
2022-08-14T10:52:24.699Z,78.20
2022-08-14T10:54:56.390Z,79.60
2022-08-14T10:57:25.242Z,77.80
2022-08-14T10:59:53.798Z,77.80
2022-08-14T11:02:44.932Z,77.10
2022-08-14T11:05:19.226Z,76.90
2022-08-14T11:07:55.305Z,76.70
2022-08-14T11:10:27.756Z,76.50
2022-08-14T11:12:57.110Z,76.40
2022-08-14T11:15:24.782Z,76.30
2022-08-14T11:17:52.074Z,76.50
2022-08-14T11:20:20.098Z,76.40
2022-08-14T11:22:57.806Z,76.20
2022-08-14T11:25:44.107Z,76.20
2022-08-14T11:28:19.288Z,76.20
2022-08-14T11:30:50.742Z,76.20
2022-08-14T11:33:24.510Z,76.40
2022-08-14T11:35:51.215Z,76.30
2022-08-14T11:38:21.423Z,76.30
2022-08-14T11:40:48.437Z,77.60
2022-08-14T11:43:16.607Z,76.40
2022-08-14T11:45:47.943Z,76.40
2022-08-14T11:49:01.911Z,76.40
2022-08-14T11:51:12.316Z,76.30
2022-08-14T11:53:42.031Z,76.00
2022-08-14T11:56:10.990Z,76.00
2022-08-14T11:58:38.366Z,75.80
2022-08-14T12:01:06.764Z,75.70
2022-08-14T12:03:45.996Z,75.50
2022-08-14T12:06:27.883Z,75.50
2022-08-14T12:09:00.076Z,75.40
2022-08-14T12:11:38.231Z,75.50
2022-08-14T12:14:13.587Z,75.40
2022-08-14T12:17:06.563Z,75.40
2022-08-14T12:19:54.013Z,75.50
2022-08-14T12:22:36.135Z,75.70
2022-08-14T12:25:12.303Z,75.70
2022-08-14T12:27:53.497Z,75.80
2022-08-14T12:30:29.137Z,75.90
2022-08-14T12:33:02.505Z,76.00
2022-08-14T12:35:42.994Z,76.20
2022-08-14T12:38:19.263Z,76.20
2022-08-14T12:40:48.438Z,76.30
2022-08-14T12:43:19.246Z,76.20
2022-08-14T12:45:49.540Z,76.30
2022-08-14T12:48:21.281Z,76.40
2022-08-14T12:50:58.276Z,76.40
2022-08-14T12:53:36.169Z,76.50
2022-08-14T12:56:22.756Z,76.60
2022-08-14T12:58:57.239Z,76.40
2022-08-14T13:01:28.708Z,76.60
2022-08-14T13:04:23.989Z,76.20
2022-08-14T13:06:52.868Z,76.30
2022-08-14T13:09:20.115Z,76.30
2022-08-14T13:11:49.474Z,76.30
2022-08-14T13:14:29.947Z,76.40
2022-08-14T13:16:58.594Z,76.30
2022-08-14T13:19:26.834Z,76.20
2022-08-14T13:22:05.238Z,76.20
2022-08-14T13:24:38.062Z,76.40
2022-08-14T13:27:06.110Z,76.50
2022-08-14T13:29:39.719Z,76.60
2022-08-14T13:32:09.435Z,76.60
2022-08-14T13:34:37.513Z,76.40
2022-08-14T13:37:07.240Z,76.80
2022-08-14T13:39:36.258Z,76.80
2022-08-14T13:42:08.690Z,76.70
2022-08-14T13:44:42.958Z,76.60
2022-08-14T13:47:14.707Z,76.50
2022-08-14T13:49:57.571Z,76.50
2022-08-14T13:52:52.828Z,76.50
2022-08-14T13:55:15.550Z,76.30
2022-08-14T13:57:49.752Z,75.80
2022-08-14T14:00:35.865Z,76.00
2022-08-14T14:03:19.297Z,76.20
2022-08-14T14:05:52.753Z,76.30
2022-08-14T14:08:43.249Z,76.40
2022-08-14T14:11:09.350Z,75.90
2022-08-14T14:13:36.998Z,76.30
2022-08-14T14:16:09.338Z,76.60
2022-08-14T14:18:41.557Z,76.50
2022-08-14T14:21:09.338Z,76.60
2022-08-14T14:23:37.637Z,76.50
2022-08-14T14:26:06.139Z,77.30
2022-08-14T14:28:41.650Z,76.70
2022-08-14T14:31:11.446Z,76.70
2022-08-14T14:33:47.458Z,76.30
2022-08-14T14:36:20.823Z,76.30
2022-08-14T14:38:51.374Z,76.20
2022-08-14T14:41:20.573Z,76.20
2022-08-14T14:43:52.092Z,76.00
2022-08-14T14:46:22.360Z,75.90
2022-08-14T14:49:05.294Z,75.90
2022-08-14T14:51:32.061Z,76.10
2022-08-14T14:53:58.772Z,76.30
2022-08-14T14:56:50.840Z,76.20
2022-08-14T14:59:13.125Z,76.50
2022-08-14T15:01:40.018Z,76.30
2022-08-14T15:04:20.307Z,76.10
2022-08-14T15:06:48.513Z,76.00
2022-08-14T15:09:17.871Z,76.10
2022-08-14T15:11:45.759Z,76.00
2022-08-14T15:14:54.749Z,76.20
2022-08-14T15:17:01.913Z,76.40
2022-08-14T15:19:28.928Z,76.30
2022-08-14T15:21:55.744Z,76.20
2022-08-14T15:24:26.610Z,76.30
2022-08-14T15:26:54.234Z,76.60
2022-08-14T15:29:21.034Z,76.50
2022-08-14T15:31:48.035Z,76.40
2022-08-14T15:34:45.654Z,76.50
2022-08-14T15:37:02.505Z,76.60
2022-08-14T15:39:33.964Z,76.80
2022-08-14T15:42:09.293Z,76.90
2022-08-14T15:44:46.599Z,77.20
2022-08-14T15:47:28.480Z,77.20
2022-08-14T15:49:56.828Z,77.20
2022-08-14T15:52:32.743Z,77.40
2022-08-14T15:55:09.631Z,77.40
2022-08-14T15:57:37.015Z,77.10
2022-08-14T16:00:40.765Z,77.10
2022-08-14T16:03:12.726Z,77.20
2022-08-14T16:05:43.442Z,77.20
2022-08-14T16:08:24.291Z,77.40
2022-08-14T16:10:56.704Z,77.40
2022-08-14T16:13:41.461Z,77.20
2022-08-14T16:16:34.604Z,77.40
2022-08-14T16:18:59.045Z,77.50
2022-08-14T16:21:31.713Z,77.00
2022-08-14T16:24:27.563Z,77.70
2022-08-14T16:27:00.776Z,76.30
2022-08-14T16:29:30.124Z,76.10
2022-08-14T16:31:58.094Z,76.30
2022-08-14T16:34:44.172Z,76.20
2022-08-14T16:37:12.352Z,76.20
2022-08-14T16:39:41.862Z,76.30
2022-08-14T16:42:10.529Z,75.90
2022-08-14T16:44:58.307Z,75.90
2022-08-14T16:47:34.792Z,75.90
2022-08-14T16:50:08.549Z,75.90
2022-08-14T16:52:44.179Z,75.90
2022-08-14T16:55:13.904Z,75.80
2022-08-14T16:57:48.258Z,75.80
2022-08-14T17:00:29.121Z,75.90
2022-08-14T17:03:01.447Z,75.90
2022-08-14T17:05:29.066Z,75.90
2022-08-14T17:08:30.909Z,76.20
2022-08-14T17:10:52.306Z,76.00
2022-08-14T17:13:26.976Z,75.80
2022-08-14T17:16:25.424Z,75.90
2022-08-14T17:19:00.122Z,76.00
2022-08-14T17:21:31.780Z,75.90
2022-08-14T17:24:56.584Z,76.00
2022-08-14T17:26:55.155Z,76.00
2022-08-14T17:29:29.673Z,75.90
2022-08-14T17:32:06.445Z,76.00
2022-08-14T17:34:53.035Z,76.10
2022-08-14T17:37:24.299Z,75.80
2022-08-14T17:40:15.330Z,75.70
2022-08-14T17:42:51.066Z,75.40
2022-08-14T17:45:41.123Z,75.90
2022-08-14T17:49:10.640Z,76.10
2022-08-14T17:51:23.272Z,76.50
2022-08-14T17:53:52.720Z,76.80
2022-08-14T17:56:19.950Z,77.10
2022-08-14T17:58:46.930Z,77.40
2022-08-14T18:01:14.288Z,77.40
2022-08-14T18:03:49.881Z,77.20
2022-08-14T18:06:39.296Z,78.30
2022-08-14T18:09:26.075Z,77.80
2022-08-14T18:11:54.574Z,77.90
2022-08-14T18:14:32.279Z,78.00
2022-08-14T18:17:01.453Z,77.80
2022-08-14T18:19:29.775Z,77.70
2022-08-14T18:21:58.038Z,77.90
2022-08-14T18:24:29.381Z,78.00
2022-08-14T18:27:09.327Z,77.80
2022-08-14T18:29:42.477Z,77.90
2022-08-14T18:32:47.616Z,77.80
2022-08-14T18:35:23.542Z,77.80
2022-08-14T18:38:26.119Z,77.70
2022-08-14T18:40:54.209Z,77.80
2022-08-14T18:43:40.287Z,77.80
2022-08-14T18:46:59.710Z,78.00
2022-08-14T18:49:15.558Z,78.10
2022-08-14T18:51:46.189Z,78.10
2022-08-14T18:54:27.350Z,78.20
2022-08-14T18:56:57.859Z,78.20
2022-08-14T18:59:36.484Z,78.20
2022-08-14T19:02:22.077Z,78.10
2022-08-14T19:04:58.206Z,78.20
2022-08-14T19:07:25.783Z,78.10
2022-08-14T19:10:01.088Z,78.20
2022-08-14T19:12:51.429Z,78.20
2022-08-14T19:15:28.970Z,78.10
2022-08-14T19:18:13.770Z,79.00
2022-08-14T19:20:56.857Z,80.10
2022-08-14T19:23:42.081Z,79.80
2022-08-14T19:26:36.819Z,79.70
2022-08-14T19:29:25.812Z,79.10
2022-08-14T19:31:59.019Z,78.50
2022-08-14T19:34:52.721Z,78.20
2022-08-14T19:37:52.711Z,78.20
2022-08-14T19:40:33.290Z,78.00
2022-08-14T19:43:01.657Z,78.00
2022-08-14T19:45:33.751Z,77.90
2022-08-14T19:48:01.170Z,77.80
2022-08-14T19:50:40.476Z,77.90
2022-08-14T19:53:11.137Z,77.70
2022-08-14T19:55:45.445Z,77.70
2022-08-14T19:58:12.910Z,77.80
2022-08-14T20:00:52.594Z,77.70
2022-08-14T20:03:24.119Z,77.80
2022-08-14T20:06:05.308Z,77.80
2022-08-14T20:10:58.792Z,77.80
2022-08-14T20:11:58.632Z,77.70
2022-08-14T20:14:20.773Z,77.80
2022-08-14T20:16:52.296Z,77.70
2022-08-14T20:19:33.839Z,77.90
2022-08-14T20:22:35.749Z,77.80
2022-08-14T20:24:54.445Z,77.70
2022-08-14T20:27:34.322Z,77.70
2022-08-14T20:30:29.738Z,77.80
2022-08-14T20:33:02.470Z,77.80
2022-08-14T20:35:38.322Z,77.80
2022-08-14T20:38:29.294Z,77.90
2022-08-14T20:41:10.739Z,77.90
2022-08-14T20:43:59.490Z,77.90
2022-08-14T20:46:29.756Z,78.00
2022-08-14T20:48:56.949Z,78.00
2022-08-14T20:51:24.618Z,78.00
2022-08-14T20:53:56.010Z,78.00
2022-08-14T20:56:28.303Z,78.00
2022-08-14T20:58:59.650Z,78.10
2022-08-14T21:01:33.141Z,78.10
2022-08-14T21:04:01.142Z,78.10
2022-08-14T21:07:23.360Z,78.20
2022-08-14T21:09:18.862Z,78.30
2022-08-14T21:12:02.718Z,78.90
2022-08-14T21:14:30.145Z,78.50
2022-08-14T21:16:58.534Z,78.50
2022-08-14T21:19:26.530Z,78.60
2022-08-14T21:21:55.036Z,78.80
2022-08-14T21:24:46.873Z,79.00
2022-08-14T21:27:13.188Z,78.90
2022-08-14T21:29:53.623Z,79.10
2022-08-14T21:32:33.958Z,79.10
2022-08-14T21:35:02.107Z,79.20
2022-08-14T21:37:34.674Z,79.00
2022-08-14T21:40:01.771Z,79.20
2022-08-14T21:42:36.453Z,79.00
2022-08-14T21:45:07.419Z,79.10
2022-08-14T21:47:34.339Z,79.10
2022-08-14T21:50:56.283Z,79.70
2022-08-14T21:53:00.661Z,79.00
2022-08-14T21:55:31.441Z,79.00
2022-08-14T21:58:52.448Z,79.00
2022-08-14T22:00:46.727Z,79.00
2022-08-14T22:03:23.471Z,79.00
2022-08-14T22:05:52.256Z,79.00
2022-08-14T22:08:21.598Z,79.00
2022-08-14T22:10:53.502Z,79.20
2022-08-14T22:13:21.607Z,79.00
2022-08-14T22:15:50.618Z,78.80
2022-08-14T22:18:23.601Z,78.90
2022-08-14T22:20:53.914Z,78.90
2022-08-14T22:23:24.203Z,79.10
2022-08-14T22:25:51.139Z,78.80
2022-08-14T22:28:32.888Z,78.90
2022-08-14T22:31:02.145Z,78.80
2022-08-14T22:33:31.175Z,78.90
2022-08-14T22:35:59.229Z,78.90
2022-08-14T22:38:35.634Z,78.80
2022-08-14T22:41:28.036Z,78.60
2022-08-14T22:43:54.039Z,78.60
2022-08-14T22:46:21.477Z,78.50
2022-08-14T22:48:51.042Z,78.50
2022-08-14T22:51:20.266Z,77.90
2022-08-14T22:53:48.510Z,78.50
2022-08-14T22:56:20.280Z,78.40
2022-08-14T22:58:49.833Z,78.40
2022-08-14T23:01:23.223Z,77.50
2022-08-14T23:03:50.413Z,78.40
2022-08-14T23:07:02.808Z,78.90
2022-08-14T23:09:35.408Z,78.40
2022-08-14T23:11:52.293Z,78.40
2022-08-14T23:14:24.366Z,78.40
2022-08-14T23:16:57.061Z,78.50
2022-08-14T23:19:25.213Z,78.50
2022-08-14T23:22:00.875Z,78.50
2022-08-14T23:24:27.558Z,78.40
2022-08-14T23:26:55.994Z,78.50
2022-08-14T23:29:22.704Z,78.50
2022-08-14T23:31:49.923Z,78.40
2022-08-14T23:34:20.328Z,78.50
2022-08-14T23:36:53.199Z,78.50
2022-08-14T23:39:24.493Z,78.60
2022-08-14T23:41:53.839Z,78.50
2022-08-14T23:44:22.055Z,78.80
2022-08-14T23:46:52.603Z,78.70
2022-08-14T23:49:24.201Z,78.80
2022-08-14T23:52:49.717Z,78.90
2022-08-14T23:54:47.560Z,78.80
2022-08-14T23:57:16.170Z,78.70
2022-08-14T23:59:54.696Z,78.70
